createdAt,value
2019-02-17T05:32:24.545Z,14.73
2019-02-17T05:34:53.358Z,13.13
2019-02-17T05:37:22.154Z,15.70
2019-02-17T05:39:50.791Z,12.37
2019-02-17T05:42:19.236Z,13.27
2019-02-17T05:44:47.680Z,12.57
2019-02-17T05:47:16.155Z,12.53
2019-02-17T05:49:44.591Z,12.87
2019-02-17T05:52:13.761Z,13.80
2019-02-17T05:54:42.288Z,13.00
2019-02-17T05:57:10.731Z,14.07
2019-02-17T05:59:39.434Z,12.40
2019-02-17T06:02:07.907Z,12.60
2019-02-17T06:04:36.360Z,13.77
2019-02-17T06:07:04.858Z,12.23
2019-02-17T06:09:33.434Z,12.77
2019-02-17T06:12:01.884Z,13.67
2019-02-17T06:14:30.315Z,13.10
2019-02-17T06:16:59.459Z,12.97
2019-02-17T06:19:27.886Z,14.33
2019-02-17T06:21:56.323Z,12.40
2019-02-17T06:24:24.790Z,11.83
2019-02-17T06:26:53.612Z,11.87
2019-02-17T06:29:22.225Z,10.97
2019-02-17T06:31:51.083Z,11.10
2019-02-17T06:34:19.514Z,10.63
2019-02-17T06:36:48.139Z,11.30
2019-02-17T06:39:16.594Z,11.10
2019-02-17T06:41:45.028Z,10.53
2019-02-17T06:44:13.469Z,10.63
2019-02-17T06:46:43.630Z,10.67
2019-02-17T06:49:12.064Z,11.13
2019-02-17T06:51:40.609Z,10.23
2019-02-17T06:54:09.133Z,11.73
2019-02-17T07:00:20.454Z,11.67
2019-02-17T07:06:31.556Z,12.00
2019-02-17T07:09:00.417Z,13.87
2019-02-17T07:14:58.068Z,11.43
2019-02-17T07:17:26.870Z,12.27
2019-02-17T07:23:36.798Z,12.87
2019-02-17T07:26:05.587Z,12.00
2019-02-17T07:28:34.028Z,11.53
2019-02-17T07:34:31.097Z,12.40
2019-02-17T07:36:59.921Z,12.83
2019-02-17T07:42:45.678Z,11.90
2019-02-17T07:45:14.580Z,14.93
2019-02-17T07:47:43.029Z,12.23
2019-02-17T07:50:11.827Z,13.53
2019-02-17T07:52:40.357Z,13.53
2019-02-17T07:55:10.554Z,13.23
2019-02-17T07:57:39.386Z,16.27
2019-02-17T08:00:12.386Z,15.33
2019-02-17T08:02:40.835Z,14.63
2019-02-17T08:05:09.916Z,15.90
2019-02-17T08:07:38.377Z,15.07
2019-02-17T08:10:09.157Z,13.60
2019-02-17T08:12:38.067Z,14.63
2019-02-17T08:15:09.139Z,13.43
2019-02-17T08:17:37.580Z,15.30
2019-02-17T08:23:35.411Z,15.07
2019-02-17T08:26:04.043Z,16.23
2019-02-17T08:32:01.058Z,21.07
2019-02-17T08:37:58.278Z,18.83
2019-02-17T08:43:31.071Z,17.93
2019-02-17T08:49:28.790Z,18.97
2019-02-17T08:51:57.560Z,18.52
2019-02-17T09:01:36.954Z,25.43
2019-02-17T09:07:34.432Z,26.13
2019-02-17T09:13:31.965Z,28.20
2019-02-17T09:19:29.907Z,28.60
2019-02-17T09:25:16.223Z,26.20
2019-02-17T09:31:13.540Z,26.03
2019-02-17T09:37:10.889Z,22.93
2019-02-17T09:43:08.206Z,23.33
2019-02-17T09:49:05.091Z,24.53
2019-02-17T09:55:02.798Z,21.40
2019-02-17T10:01:00.747Z,21.60
2019-02-17T10:06:58.576Z,22.97
2019-02-17T10:09:27.113Z,22.33
2019-02-17T10:11:55.840Z,20.17
2019-02-17T10:14:24.276Z,20.70
2019-02-17T10:20:21.418Z,20.70
2019-02-17T10:22:49.887Z,20.30
2019-02-17T10:25:18.338Z,19.00
2019-02-17T11:27:21.902Z,11.17
2019-02-17T11:29:50.439Z,12.03
2019-02-17T11:35:48.135Z,10.90
2019-02-17T11:38:16.697Z,9.50
2019-02-17T11:40:45.206Z,10.13
2019-02-17T11:46:43.308Z,10.30
2019-02-17T11:49:11.767Z,10.67
2019-02-17T11:51:40.500Z,10.30
2019-02-17T11:54:08.932Z,10.07
2019-02-17T11:56:37.444Z,10.30
2019-02-17T11:59:05.881Z,10.40
2019-02-17T12:01:34.312Z,10.53
2019-02-17T12:04:02.775Z,9.73
2019-02-17T12:06:31.272Z,9.80
2019-02-17T12:08:59.713Z,8.93
2019-02-17T12:11:28.472Z,10.17
2019-02-17T12:13:56.910Z,10.40
2019-02-17T12:19:55.731Z,9.10
2019-02-17T12:22:25.844Z,9.57
2019-02-17T12:24:56.055Z,8.77
2019-02-17T12:27:28.873Z,10.13
2019-02-17T12:29:59.223Z,9.97
2019-02-17T12:32:29.041Z,10.10
2019-02-17T12:34:57.483Z,10.20
2019-02-17T12:37:25.990Z,10.50
2019-02-17T12:39:54.507Z,10.80
2019-02-17T12:42:23.033Z,9.83
2019-02-17T12:48:20.622Z,9.37
2019-02-17T12:50:49.405Z,9.23
2019-02-17T12:53:17.839Z,9.07
2019-02-17T12:55:46.290Z,8.70
2019-02-17T13:01:45.301Z,8.07
2019-02-17T13:07:42.873Z,8.53
2019-02-17T13:10:12.835Z,9.10
2019-02-17T13:12:41.624Z,7.83
2019-02-17T13:15:12.197Z,8.10
2019-02-17T13:17:40.673Z,8.40
2019-02-17T13:20:11.870Z,9.33
2019-02-17T13:22:40.676Z,9.57
2019-02-17T13:25:16.415Z,9.87
2019-02-17T13:31:26.371Z,8.53
2019-02-17T13:33:55.322Z,8.00
2019-02-17T13:36:23.769Z,7.60
2019-02-17T13:38:52.742Z,7.90
2019-02-17T13:41:21.287Z,7.90
2019-02-17T13:43:49.791Z,7.77
2019-02-17T13:46:18.607Z,6.90
2019-02-17T13:48:47.390Z,7.30
2019-02-17T13:51:16.198Z,6.37
2019-02-17T13:53:44.676Z,9.37
2019-02-17T13:56:13.111Z,7.57
2019-02-17T13:58:41.562Z,6.63
2019-02-17T14:01:10.081Z,6.80
2019-02-17T14:03:48.186Z,6.47
2019-02-17T14:06:08.680Z,6.83
2019-02-17T14:08:37.154Z,6.60
2019-02-17T14:11:05.914Z,7.23
2019-02-17T14:13:34.378Z,6.67
2019-02-17T14:19:32.073Z,6.53
2019-02-17T14:22:00.885Z,5.53
2019-02-17T14:24:29.359Z,5.60
2019-02-17T14:26:57.811Z,6.10
2019-02-17T14:29:26.291Z,5.93
2019-02-17T14:35:35.889Z,5.83
2019-02-17T14:38:04.332Z,5.40
2019-02-17T14:44:01.761Z,5.30
2019-02-17T14:49:58.776Z,5.83
2019-02-17T14:52:27.217Z,6.07
2019-02-17T14:58:24.446Z,6.23
2019-02-17T15:00:53.272Z,6.30
2019-02-17T15:03:21.711Z,6.97
2019-02-17T15:05:50.151Z,6.67
2019-02-17T15:11:47.843Z,6.70
2019-02-17T15:14:16.367Z,6.30
2019-02-17T15:20:26.214Z,7.03
2019-02-17T15:22:54.973Z,7.73
2019-02-17T15:25:23.410Z,7.70
2019-02-17T15:27:51.931Z,8.13
2019-02-17T15:30:20.419Z,10.10
2019-02-17T15:32:48.850Z,9.43
2019-02-17T15:38:45.771Z,9.63
2019-02-17T15:41:14.210Z,10.20
2019-02-17T15:43:43.028Z,10.70
2019-02-17T15:46:13.199Z,9.20
2019-02-17T15:48:41.855Z,9.97
2019-02-17T15:54:39.791Z,9.87
2019-02-17T16:00:36.379Z,10.83
2019-02-17T16:06:34.000Z,11.00
2019-02-17T16:09:02.838Z,11.07
2019-02-17T16:11:31.556Z,11.20
2019-02-17T16:14:00.001Z,10.57
2019-02-17T16:16:28.483Z,11.00
2019-02-17T16:18:56.926Z,11.20
2019-02-17T16:21:25.395Z,10.87
2019-02-17T16:23:54.035Z,10.47
2019-02-17T16:26:22.479Z,10.47
2019-02-17T16:28:50.991Z,9.93
2019-02-17T16:31:19.729Z,10.40
2019-02-17T16:33:48.190Z,11.10
2019-02-17T16:36:16.627Z,10.17
2019-02-17T16:42:13.994Z,11.63
2019-02-17T16:48:11.882Z,11.17
2019-02-17T16:50:40.419Z,11.68
2019-02-17T16:56:50.239Z,11.27
2019-02-17T16:59:18.687Z,10.90
2019-02-17T17:01:47.128Z,13.33
2019-02-17T17:04:15.852Z,11.83
2019-02-17T17:10:25.646Z,13.33
2019-02-17T17:16:35.554Z,12.23
2019-02-17T17:22:45.390Z,13.73
2019-02-17T17:25:14.667Z,14.73
2019-02-17T17:27:43.274Z,18.13
2019-02-17T17:30:14.262Z,17.17
2019-02-17T17:32:42.697Z,14.93
2019-02-17T17:35:11.478Z,13.97
2019-02-17T17:41:08.943Z,16.37
2019-02-17T17:43:37.587Z,16.30
2019-02-17T17:46:06.018Z,15.73
2019-02-17T17:48:34.833Z,15.60
2019-02-17T17:54:32.031Z,14.50
2019-02-17T18:00:30.579Z,13.17
2019-02-17T18:02:59.341Z,14.27
2019-02-17T18:05:27.776Z,13.73
2019-02-17T18:07:56.215Z,12.93
2019-02-17T18:10:25.135Z,14.37
2019-02-17T18:12:53.573Z,14.17
2019-02-17T18:15:22.089Z,13.63
2019-02-17T18:17:54.229Z,15.07
2019-02-17T18:20:20.878Z,14.67
2019-02-17T18:22:49.382Z,15.67
2019-02-17T18:25:17.910Z,15.80
2019-02-17T18:27:46.359Z,15.77
2019-02-17T18:33:43.059Z,15.20
2019-02-17T18:39:40.620Z,14.33
2019-02-17T18:45:15.019Z,15.20
2019-02-17T18:47:43.842Z,14.70
2019-02-17T18:50:13.916Z,16.70
2019-02-17T18:52:42.358Z,17.47
2019-02-17T18:58:39.387Z,16.67
2019-02-17T19:01:07.867Z,16.20
2019-02-17T19:07:18.111Z,15.70
2019-02-17T19:09:46.983Z,16.77
2019-02-17T19:15:44.552Z,15.47
2019-02-17T19:18:12.990Z,17.33
2019-02-17T19:20:41.473Z,25.50
2019-02-17T19:26:51.191Z,21.87
2019-02-17T19:29:19.946Z,19.20
2019-02-17T19:35:17.329Z,19.57
2019-02-17T19:37:45.840Z,16.27
2019-02-17T19:40:14.852Z,16.87
2019-02-17T19:42:43.569Z,15.87
2019-02-17T19:45:19.431Z,15.27
2019-02-17T19:47:47.881Z,17.63
2019-02-17T19:50:17.056Z,21.13
2019-02-17T19:52:45.750Z,16.30
2019-02-17T19:55:15.653Z,18.10
2019-02-17T19:57:44.511Z,17.57
2019-02-17T20:00:15.546Z,17.00
2019-02-17T20:02:45.958Z,19.07
2019-02-17T20:05:16.139Z,18.10
2019-02-17T20:07:44.850Z,18.23
2019-02-17T20:10:13.422Z,17.47
2019-02-17T20:12:41.858Z,18.67
2019-02-17T20:15:10.416Z,18.77
2019-02-17T20:17:38.889Z,18.33
2019-02-17T20:20:09.423Z,16.20
2019-02-17T20:26:06.795Z,16.40
2019-02-17T20:28:42.986Z,16.63
